Morganfield, Kentucky
Current Conditions -  °F | °C
As of 1:15 AM on Thursday 23 Oct 2014 (Local Time) from K5M9 Reporting Station
Clear Clear  
Wind Chill: 43°   Ceiling: Unl
Heat Index: 43°   Visibility: 10mi
Dew Point: 39°   Wind: 3mph
Humidity: 86%   Direction: 60°ENE
Pressure: 30.23"   Gusts: NA
Location:  37.68°N, 87.92°W
Report Text: K5M9 230615Z AUTO 06003KT 10SM CLR 06/04 A3023 RMK AO2 T00620040
Loading
Personal Weather Stations






























Interactive Weather Map
Tropical Storm Tracking
New forecast layout! Learn more

10-Day Weather Forecast

Advertisements
Track Severe Weather on mobile